Time;durP1;ratioP1;P1;durP2;ratioP2;P2;SDS_P1;SDS_P2;PMS_P1;PMS_P2;Temp;Humidity;BMP_temperature;BMP_pressure;BME280_temperature;BME280_humidity;BME280_pressure;Samples;Min_cycle;Max_cycle;Signal;HPM_P1;HPM_P2
2022/03/12 00:01:15;;;;;;;13.98;9.68;;;10.20;84.30;;;;;;4957011;28;20031;-83
2022/03/12 00:03:41;;;;;;;12.73;8.27;;;10.20;84.30;;;;;;4962584;28;20312;-83
2022/03/12 00:06:09;;;;;;;11.98;8.25;;;10.30;84.20;;;;;;4956330;28;20516;-83
2022/03/12 00:08:44;;;;;;;11.48;7.88;;;10.20;84.10;;;;;;4963489;28;20031;-83
2022/03/12 00:11:12;;;;;;;11.30;7.82;;;10.30;83.90;;;;;;4980952;28;20475;-84
2022/03/12 00:13:40;;;;;;;11.00;7.78;;;10.30;83.70;;;;;;4958439;28;20386;-84
2022/03/12 00:16:13;;;;;;;12.98;9.02;;;10.40;83.50;;;;;;4965458;28;20117;-83
2022/03/12 00:18:41;;;;;;;11.07;7.68;;;10.40;83.60;;;;;;4975096;28;20047;-82
2022/03/12 00:21:07;;;;;;;11.82;8.10;;;10.40;83.50;;;;;;4964689;28;20409;-82
2022/03/12 00:23:33;;;;;;;14.00;9.20;;;10.40;83.40;;;;;;4986809;28;20041;-83
2022/03/12 00:25:59;;;;;;;11.18;7.82;;;10.40;83.40;;;;;;4956900;28;20108;-82
2022/03/12 00:28:25;;;;;;;13.65;9.45;;;10.40;83.50;;;;;;4965675;28;20035;-83
2022/03/12 00:30:51;;;;;;;12.40;8.30;;;10.40;83.50;;;;;;4962484;28;20023;-83
2022/03/12 00:33:18;;;;;;;23.63;14.90;;;10.40;83.60;;;;;;4969085;28;21332;-82
2022/03/12 00:35:47;;;;;;;17.70;12.07;;;10.40;83.40;;;;;;4959270;28;20043;-84
2022/03/12 00:38:14;;;;;;;10.50;7.78;;;10.40;83.30;;;;;;4959872;28;20039;-82
2022/03/12 00:40:40;;;;;;;11.45;6.63;;;10.40;83.20;;;;;;4955598;28;20062;-83
2022/03/12 00:43:06;;;;;;;11.27;7.22;;;10.40;83.10;;;;;;4982195;28;20534;-83
2022/03/12 00:45:32;;;;;;;10.43;6.43;;;10.40;83.10;;;;;;4960213;28;20104;-83
2022/03/12 00:47:57;;;;;;;9.60;6.72;;;10.40;83.10;;;;;;4957288;28;20162;-81
2022/03/12 00:50:23;;;;;;;9.52;5.88;;;10.40;83.00;;;;;;4962172;28;20027;-79
2022/03/12 00:52:49;;;;;;;10.60;6.43;;;10.40;82.90;;;;;;4958629;28;20074;-80
2022/03/12 00:55:15;;;;;;;9.90;6.57;;;10.40;83.00;;;;;;4962711;28;20039;-81
2022/03/12 00:57:41;;;;;;;10.13;6.72;;;10.40;83.10;;;;;;4966416;28;20241;-82
2022/03/12 01:00:14;;;;;;;11.48;6.68;;;10.30;83.00;;;;;;4963709;28;20374;-81
2022/03/12 01:02:40;;;;;;;9.68;6.65;;;10.40;83.10;;;;;;4963646;28;20039;-84
2022/03/12 01:05:06;;;;;;;10.25;6.50;;;10.40;83.00;;;;;;4964552;28;20034;-83
2022/03/12 01:07:33;;;;;;;12.05;6.60;;;10.30;83.00;;;;;;4965742;28;20460;-81
2022/03/12 01:09:59;;;;;;;9.93;6.18;;;10.40;83.10;;;;;;4964341;28;20034;-82
2022/03/12 01:12:25;;;;;;;11.25;6.60;;;10.30;83.20;;;;;;4958617;28;20366;-79
2022/03/12 01:14:51;;;;;;;11.43;7.10;;;10.20;83.20;;;;;;4965243;28;20038;-84
2022/03/12 01:17:18;;;;;;;9.50;6.35;;;10.20;83.40;;;;;;4962053;28;20033;-78
2022/03/12 01:19:43;;;;;;;10.02;6.05;;;10.20;83.50;;;;;;4959774;28;20501;-79
2022/03/12 01:22:18;;;;;;;9.18;6.55;;;10.10;83.50;;;;;;4963484;28;20035;-82
2022/03/12 01:24:44;;;;;;;9.00;6.05;;;10.20;83.50;;;;;;4969900;28;20043;-80
2022/03/12 01:27:09;;;;;;;9.35;6.32;;;10.10;83.60;;;;;;4963193;28;20054;-79
2022/03/12 01:29:35;;;;;;;9.45;6.32;;;10.10;83.60;;;;;;4958925;28;20030;-79
2022/03/12 01:32:01;;;;;;;11.63;6.63;;;10.10;83.80;;;;;;4961342;28;20975;-79
2022/03/12 01:34:26;;;;;;;10.82;6.45;;;10.10;83.80;;;;;;4961573;28;20039;-83
2022/03/12 01:36:53;;;;;;;10.02;6.43;;;10.00;83.80;;;;;;4966704;28;20074;-84
2022/03/12 01:39:19;;;;;;;10.25;6.18;;;9.90;84.00;;;;;;4968310;28;20046;-84
2022/03/12 01:41:45;;;;;;;12.68;6.38;;;9.90;84.10;;;;;;4958943;28;20070;-83
2022/03/12 01:44:14;;;;;;;9.85;5.82;;;9.90;84.10;;;;;;4963644;28;20155;-82
2022/03/12 01:46:44;;;;;;;12.55;6.38;;;9.90;84.30;;;;;;4964528;28;20053;-83
2022/03/12 01:49:14;;;;;;;11.25;6.95;;;9.90;84.20;;;;;;4964884;28;20038;-83
2022/03/12 01:51:41;;;;;;;10.77;5.78;;;10.00;84.00;;;;;;4961781;28;20034;-84
2022/03/12 01:54:08;;;;;;;10.40;6.13;;;10.00;83.90;;;;;;4962429;28;20039;-84
2022/03/12 01:56:38;;;;;;;9.70;5.80;;;10.00;83.90;;;;;;4965790;28;20030;-83
2022/03/12 01:59:05;;;;;;;8.73;5.60;;;9.90;84.00;;;;;;4963552;28;20082;-83
2022/03/12 02:01:32;;;;;;;9.27;5.60;;;9.90;83.90;;;;;;4960018;28;20486;-83
2022/03/12 02:04:02;;;;;;;9.95;6.03;;;10.00;83.80;;;;;;4959574;28;20540;-83
2022/03/12 02:06:28;;;;;;;10.10;5.75;;;10.00;83.60;;;;;;4960060;28;20062;-84
2022/03/12 02:08:58;;;;;;;9.48;5.07;;;10.10;83.40;;;;;;4963172;28;20035;-84
2022/03/12 02:11:28;;;;;;;10.48;5.55;;;10.10;83.30;;;;;;4961480;28;20072;-83
2022/03/12 02:14:00;;;;;;;10.63;5.78;;;10.10;83.30;;;;;;4960570;28;20445;-83
2022/03/12 02:16:27;;;;;;;9.60;5.72;;;10.10;83.10;;;;;;4961372;28;20108;-83
2022/03/12 02:18:53;;;;;;;9.85;5.45;;;10.00;83.10;;;;;;4969680;28;20359;-83
2022/03/12 02:21:41;;;;;;;10.30;5.93;;;10.00;83.10;;;;;;4966474;28;20843;-83
2022/03/12 02:24:12;;;;;;;8.98;5.53;;;10.00;83.20;;;;;;4960694;28;20111;-83
2022/03/12 02:26:42;;;;;;;10.27;5.32;;;9.90;83.40;;;;;;4957810;28;20193;-83
2022/03/12 02:29:12;;;;;;;10.07;6.07;;;9.90;83.50;;;;;;4961008;28;20035;-84
2022/03/12 02:31:42;;;;;;;8.27;5.15;;;9.90;83.70;;;;;;4957015;28;20492;-84
2022/03/12 02:34:11;;;;;;;10.52;5.88;;;10.00;83.40;;;;;;4967461;28;20054;-83
2022/03/12 02:36:39;;;;;;;11.07;5.03;;;9.90;83.20;;;;;;4965609;28;20035;-84
2022/03/12 02:39:05;;;;;;;10.52;5.25;;;9.90;83.30;;;;;;4955814;28;20043;-83
2022/03/12 02:41:31;;;;;;;10.20;5.22;;;9.80;83.40;;;;;;4959622;28;20053;-84
2022/03/12 02:43:58;;;;;;;9.07;5.07;;;9.70;83.40;;;;;;4978402;28;20408;-83
2022/03/12 02:46:28;;;;;;;8.02;5.00;;;9.70;83.60;;;;;;4976568;28;20782;-82
2022/03/12 02:48:56;;;;;;;10.43;5.78;;;9.70;83.70;;;;;;4975742;28;20043;-83
2022/03/12 02:51:22;;;;;;;9.23;5.13;;;9.70;83.50;;;;;;4964082;28;21662;-83
2022/03/12 02:53:56;;;;;;;10.07;5.40;;;9.70;83.40;;;;;;4972828;28;20041;-84
2022/03/12 02:56:23;;;;;;;9.05;5.00;;;9.70;83.50;;;;;;4965849;28;20085;-84
2022/03/12 02:58:50;;;;;;;9.23;5.22;;;9.60;83.40;;;;;;4969810;28;20161;-84
2022/03/12 03:01:16;;;;;;;9.63;5.40;;;9.60;83.40;;;;;;4971731;28;20038;-84
2022/03/12 03:03:46;;;;;;;11.13;5.55;;;9.60;83.50;;;;;;4996166;28;20117;-84
2022/03/12 03:06:14;;;;;;;9.60;5.72;;;9.60;83.60;;;;;;4966701;28;20035;-84
2022/03/12 03:08:41;;;;;;;12.40;5.50;;;9.50;83.60;;;;;;4980261;28;20027;-83
2022/03/12 03:11:16;;;;;;;8.52;4.88;;;9.50;83.70;;;;;;4979488;28;20027;-83
2022/03/12 03:13:44;;;;;;;9.48;5.20;;;9.50;83.70;;;;;;4974401;28;20028;-83
2022/03/12 03:16:18;;;;;;;10.70;5.90;;;9.50;83.60;;;;;;4982683;28;20049;-83
2022/03/12 03:18:50;;;;;;;13.32;6.00;;;9.60;83.60;;;;;;4981326;28;20039;-83
2022/03/12 03:21:17;;;;;;;10.18;5.18;;;9.60;83.30;;;;;;4978235;28;20035;-83
2022/03/12 03:23:44;;;;;;;10.57;5.10;;;9.60;83.20;;;;;;4978356;28;20454;-84
2022/03/12 03:26:11;;;;;;;7.78;5.50;;;9.60;83.20;;;;;;4962703;28;20035;-82
2022/03/12 03:28:37;;;;;;;9.35;5.43;;;9.60;83.30;;;;;;4961199;28;20383;-82
2022/03/12 03:31:05;;;;;;;8.93;5.10;;;9.60;83.20;;;;;;4966037;28;20038;-83
2022/03/12 03:33:32;;;;;;;9.13;5.63;;;9.70;83.10;;;;;;4955291;28;20035;-83
2022/03/12 03:35:57;;;;;;;9.52;5.57;;;9.60;83.30;;;;;;4964752;28;20058;-83
2022/03/12 03:38:23;;;;;;;9.45;5.35;;;9.60;83.30;;;;;;4962593;28;20023;-83
2022/03/12 03:40:50;;;;;;;8.88;5.55;;;9.60;83.30;;;;;;4958572;28;20027;-84
2022/03/12 03:43:19;;;;;;;10.23;5.68;;;9.60;83.20;;;;;;4959219;28;20378;-83
2022/03/12 03:45:51;;;;;;;9.70;5.65;;;9.70;83.20;;;;;;4960653;28;20035;-83
2022/03/12 03:48:20;;;;;;;9.70;5.70;;;9.70;83.00;;;;;;4959083;28;20390;-83
2022/03/12 03:50:48;;;;;;;9.57;5.97;;;9.70;83.20;;;;;;4962561;28;20304;-82
2022/03/12 03:53:17;;;;;;;9.50;5.22;;;9.60;83.20;;;;;;4959185;28;20516;-83
2022/03/12 03:55:43;;;;;;;11.40;5.72;;;9.60;83.20;;;;;;4956513;28;20066;-82
2022/03/12 03:58:12;;;;;;;9.07;5.32;;;9.60;83.40;;;;;;4952890;28;20432;-83
2022/03/12 04:00:38;;;;;;;8.95;5.72;;;9.60;83.40;;;;;;4959237;28;20375;-83
2022/03/12 04:03:04;;;;;;;11.25;5.35;;;9.60;83.50;;;;;;4957563;28;20041;-83
2022/03/12 04:05:38;;;;;;;8.90;5.50;;;9.70;83.40;;;;;;4959411;28;20066;-83
2022/03/12 04:08:07;;;;;;;10.05;6.00;;;9.60;83.20;;;;;;4964880;28;20043;-83
2022/03/12 04:10:33;;;;;;;9.05;5.13;;;9.60;83.20;;;;;;4969217;28;20922;-83
2022/03/12 04:12:59;;;;;;;9.32;5.75;;;9.60;83.10;;;;;;4956833;28;20479;-84
2022/03/12 04:15:25;;;;;;;10.07;5.65;;;9.60;83.30;;;;;;4952546;28;20034;-83
2022/03/12 04:17:52;;;;;;;13.05;5.90;;;9.50;83.50;;;;;;4960651;28;20034;-84
2022/03/12 04:20:19;;;;;;;10.07;5.63;;;9.40;83.70;;;;;;4965278;28;20137;-83
2022/03/12 04:22:47;;;;;;;10.88;5.50;;;9.40;83.90;;;;;;4967267;28;20088;-83
2022/03/12 04:25:13;;;;;;;8.60;5.15;;;9.30;84.00;;;;;;4966080;28;20136;-83
2022/03/12 04:27:42;;;;;;;10.40;5.53;;;9.30;84.20;;;;;;4967760;28;20041;-83
2022/03/12 04:30:09;;;;;;;10.68;4.90;;;9.20;84.30;;;;;;4978633;28;20062;-82
2022/03/12 04:32:35;;;;;;;11.60;5.30;;;9.10;84.40;;;;;;4964243;28;20035;-83
2022/03/12 04:35:01;;;;;;;10.60;5.65;;;9.10;84.60;;;;;;4968893;28;20047;-82
2022/03/12 04:37:27;;;;;;;10.18;5.47;;;9.10;84.60;;;;;;4979815;28;20046;-84
2022/03/12 04:39:53;;;;;;;10.13;5.00;;;9.10;84.60;;;;;;4980180;28;20053;-84
2022/03/12 04:42:21;;;;;;;11.82;5.47;;;9.10;84.60;;;;;;4970208;28;20088;-83
2022/03/12 04:44:47;;;;;;;10.02;5.30;;;9.10;84.80;;;;;;4962529;28;20089;-84
2022/03/12 04:47:17;;;;;;;10.13;5.22;;;9.10;84.80;;;;;;4967181;28;20378;-84
2022/03/12 04:49:42;;;;;;;9.15;4.90;;;9.00;84.80;;;;;;4958502;28;20043;-85
2022/03/12 04:52:11;;;;;;;11.90;5.28;;;9.00;84.80;;;;;;4972311;28;20350;-83
2022/03/12 04:54:37;;;;;;;8.35;4.70;;;9.00;84.80;;;;;;4964038;28;20043;-83
2022/03/12 04:57:04;;;;;;;9.00;5.20;;;9.00;84.70;;;;;;4961626;28;20027;-84
2022/03/12 04:59:29;;;;;;;8.30;5.20;;;8.90;84.70;;;;;;4973913;28;20075;-83
2022/03/12 05:01:57;;;;;;;8.73;4.90;;;8.90;84.70;;;;;;4954278;28;20064;-84
2022/03/12 05:04:23;;;;;;;10.43;5.20;;;8.90;84.80;;;;;;4971184;28;20035;-84
2022/03/12 05:06:48;;;;;;;9.02;5.25;;;8.90;84.70;;;;;;4967173;28;20108;-84
2022/03/12 05:09:14;;;;;;;9.32;5.43;;;8.80;84.50;;;;;;4964346;28;20066;-84
2022/03/12 05:11:40;;;;;;;10.15;5.03;;;8.80;84.50;;;;;;4964557;28;20338;-84
2022/03/12 05:14:06;;;;;;;9.23;4.72;;;8.80;84.50;;;;;;4970509;28;20047;-84
2022/03/12 05:16:33;;;;;;;9.10;4.43;;;8.80;84.50;;;;;;4982586;28;20087;-84
2022/03/12 05:19:00;;;;;;;12.90;5.05;;;8.80;84.30;;;;;;4962770;28;20141;-84
2022/03/12 05:21:25;;;;;;;10.55;5.15;;;8.80;84.40;;;;;;4967132;28;20414;-83
2022/03/12 05:23:51;;;;;;;8.80;4.60;;;8.80;84.30;;;;;;4960523;28;20053;-84
2022/03/12 05:26:17;;;;;;;12.27;5.68;;;8.80;84.40;;;;;;4960803;28;20116;-83
2022/03/12 05:28:43;;;;;;;8.55;4.82;;;8.80;84.50;;;;;;4964784;28;20031;-83
2022/03/12 05:31:10;;;;;;;10.10;5.07;;;8.70;84.30;;;;;;5002226;28;20037;-84
2022/03/12 05:33:36;;;;;;;7.85;4.40;;;8.80;84.30;;;;;;4970809;28;20465;-84
2022/03/12 05:36:03;;;;;;;7.90;4.63;;;8.80;84.40;;;;;;4989939;28;20182;-83
2022/03/12 05:38:31;;;;;;;10.55;5.13;;;8.70;84.30;;;;;;4966058;28;20863;-83
2022/03/12 05:40:58;;;;;;;12.13;5.40;;;8.70;84.20;;;;;;4995133;28;20824;-83
2022/03/12 05:43:26;;;;;;;10.35;4.43;;;8.70;84.20;;;;;;4965540;28;20038;-82
2022/03/12 05:45:52;;;;;;;8.43;5.00;;;8.70;84.20;;;;;;4958873;28;20041;-84
2022/03/12 05:48:20;;;;;;;9.77;4.78;;;8.70;84.20;;;;;;4974202;28;20549;-83
2022/03/12 05:50:51;;;;;;;10.15;4.85;;;8.70;84.20;;;;;;4961443;28;20051;-83
2022/03/12 05:53:19;;;;;;;9.77;4.90;;;8.70;84.30;;;;;;4964562;28;20043;-82
2022/03/12 05:55:47;;;;;;;12.57;5.10;;;8.60;84.20;;;;;;4973720;28;20035;-84
2022/03/12 05:58:17;;;;;;;11.55;5.13;;;8.60;84.10;;;;;;4967060;28;20034;-84
2022/03/12 06:00:43;;;;;;;13.32;5.40;;;8.60;84.10;;;;;;4954114;28;20394;-84
2022/03/12 06:03:12;;;;;;;11.18;4.95;;;8.60;84.10;;;;;;4966735;28;20050;-84
2022/03/12 06:05:41;;;;;;;12.75;4.65;;;8.60;84.10;;;;;;4963144;28;20050;-84
2022/03/12 06:08:08;;;;;;;11.05;4.50;;;8.60;84.00;;;;;;4976441;28;20043;-83
2022/03/12 06:10:37;;;;;;;10.45;4.88;;;8.60;83.90;;;;;;4970139;28;20057;-85
2022/03/12 06:13:03;;;;;;;10.85;4.63;;;8.60;83.90;;;;;;4962989;28;20096;-84
2022/03/12 06:15:29;;;;;;;12.13;5.20;;;8.50;84.10;;;;;;4954126;28;20032;-84
2022/03/12 06:17:55;;;;;;;8.45;4.30;;;8.50;84.20;;;;;;4962997;28;20031;-84
2022/03/12 06:20:22;;;;;;;9.48;4.18;;;8.50;84.30;;;;;;4961759;28;21002;-84
2022/03/12 06:22:53;;;;;;;10.48;4.50;;;8.50;84.30;;;;;;4966031;28;20031;-85
2022/03/12 06:25:20;;;;;;;11.77;4.88;;;8.50;84.20;;;;;;4975590;28;20062;-84
2022/03/12 06:27:53;;;;;;;13.63;5.13;;;8.60;84.20;;;;;;4962228;28;20041;-84
2022/03/12 06:30:21;;;;;;;10.18;5.00;;;8.60;84.30;;;;;;4984242;28;20031;-84
2022/03/12 06:32:48;;;;;;;13.27;5.90;;;8.60;84.30;;;;;;4969498;28;20457;-84
2022/03/12 06:35:15;;;;;;;10.20;5.25;;;8.60;84.40;;;;;;4964497;28;20050;-84
2022/03/12 06:37:41;;;;;;;10.63;5.10;;;8.60;84.20;;;;;;4959834;28;20050;-83
2022/03/12 06:40:08;;;;;;;17.02;5.70;;;8.60;84.10;;;;;;4959727;28;20051;-84
2022/03/12 06:42:36;;;;;;;10.63;5.40;;;8.60;84.10;;;;;;4961558;28;20030;-83
2022/03/12 06:45:02;;;;;;;12.00;5.28;;;8.60;84.00;;;;;;4957556;28;20042;-83
2022/03/12 06:47:33;;;;;;;16.48;5.90;;;8.60;84.00;;;;;;4961723;28;20041;-84
2022/03/12 06:50:00;;;;;;;11.27;5.15;;;8.60;83.90;;;;;;4957315;28;20039;-84
2022/03/12 06:52:28;;;;;;;13.93;5.85;;;8.60;83.90;;;;;;4959289;28;20375;-83
2022/03/12 06:54:54;;;;;;;13.43;5.03;;;8.70;83.80;;;;;;4964630;28;20034;-83
2022/03/12 06:57:21;;;;;;;11.73;5.25;;;8.70;83.60;;;;;;4959272;28;20075;-84
2022/03/12 06:59:47;;;;;;;13.90;5.43;;;8.70;83.50;;;;;;4960946;28;20522;-84
2022/03/12 07:02:14;;;;;;;10.40;5.72;;;8.80;83.30;;;;;;4962393;28;20121;-84
2022/03/12 07:04:39;;;;;;;13.63;5.47;;;8.80;83.10;;;;;;4960552;28;20035;-83
2022/03/12 07:07:05;;;;;;;9.77;5.10;;;8.80;83.10;;;;;;4960556;28;20075;-84
2022/03/12 07:09:31;;;;;;;15.57;5.20;;;8.90;82.90;;;;;;4958878;28;20096;-84
2022/03/12 07:11:58;;;;;;;8.88;4.63;;;9.00;82.60;;;;;;4958077;28;20406;-83
2022/03/12 07:14:27;;;;;;;15.43;4.95;;;9.00;82.50;;;;;;4963922;28;20073;-84
2022/03/12 07:16:54;;;;;;;13.38;5.70;;;9.10;82.30;;;;;;4957631;28;20046;-83
2022/03/12 07:19:20;;;;;;;12.70;5.10;;;9.10;82.30;;;;;;4964526;28;20513;-84
2022/03/12 07:21:45;;;;;;;14.98;4.88;;;9.10;82.10;;;;;;4960803;28;20045;-84
2022/03/12 07:24:12;;;;;;;9.65;4.35;;;9.10;82.10;;;;;;4955200;28;20122;-84
2022/03/12 07:26:39;;;;;;;11.45;5.03;;;9.10;82.10;;;;;;4959506;28;20038;-83
2022/03/12 07:29:05;;;;;;;12.88;5.07;;;9.10;81.90;;;;;;4960215;28;20080;-85
2022/03/12 07:31:30;;;;;;;10.68;5.00;;;9.20;81.80;;;;;;4957980;28;20041;-84
2022/03/12 07:33:57;;;;;;;10.45;4.55;;;9.20;81.70;;;;;;4956525;28;20047;-84
2022/03/12 07:36:22;;;;;;;10.60;4.10;;;9.20;81.70;;;;;;4971054;28;20060;-84
2022/03/12 07:38:48;;;;;;;11.05;4.55;;;9.30;81.50;;;;;;4952781;28;20716;-83
2022/03/12 07:41:15;;;;;;;12.52;4.43;;;9.30;81.40;;;;;;4956056;28;20043;-83
2022/03/12 07:43:42;;;;;;;9.35;4.63;;;9.30;81.30;;;;;;4955425;28;20047;-82
2022/03/12 07:46:07;;;;;;;10.38;4.25;;;9.40;81.20;;;;;;4976600;28;20095;-82
2022/03/12 07:48:33;;;;;;;12.15;4.82;;;9.50;81.00;;;;;;4969938;28;20047;-82
2022/03/12 07:51:00;;;;;;;12.00;4.70;;;9.60;80.60;;;;;;4975053;28;20023;-82
2022/03/12 07:53:26;;;;;;;15.15;4.28;;;9.60;80.80;;;;;;4984029;28;20041;-82
2022/03/12 07:55:52;;;;;;;10.32;4.82;;;9.70;80.50;;;;;;4978926;28;20083;-83
2022/03/12 07:58:18;;;;;;;13.38;6.05;;;9.80;80.00;;;;;;4981602;28;20050;-81
2022/03/12 08:00:44;;;;;;;14.20;5.55;;;9.80;79.70;;;;;;4975368;28;20053;-84
2022/03/12 08:03:10;;;;;;;13.98;5.85;;;9.80;79.70;;;;;;4969545;28;20020;-84
2022/03/12 08:05:35;;;;;;;10.45;4.60;;;9.90;79.70;;;;;;4951445;28;20042;-77
2022/03/12 08:08:02;;;;;;;13.13;4.78;;;10.10;79.50;;;;;;4953311;28;20104;-76
2022/03/12 08:10:28;;;;;;;10.80;5.15;;;10.10;79.30;;;;;;4962002;28;20088;-77
2022/03/12 08:12:54;;;;;;;14.65;4.43;;;10.10;78.90;;;;;;4963416;28;20476;-77
2022/03/12 08:15:20;;;;;;;10.90;4.85;;;10.20;78.70;;;;;;4958904;28;20572;-77
2022/03/12 08:17:47;;;;;;;11.25;4.55;;;10.30;78.30;;;;;;4951382;28;20043;-77
2022/03/12 08:20:13;;;;;;;11.50;5.13;;;10.30;78.40;;;;;;4949281;28;20058;-77
2022/03/12 08:22:41;;;;;;;12.45;5.45;;;10.40;78.20;;;;;;4957804;28;20039;-77
2022/03/12 08:25:08;;;;;;;9.68;4.47;;;10.50;77.80;;;;;;4959953;28;20039;-78
2022/03/12 08:27:35;;;;;;;11.05;4.50;;;10.50;77.80;;;;;;4952509;28;20099;-77
2022/03/12 08:30:05;;;;;;;11.50;5.10;;;10.70;77.40;;;;;;4952300;28;20074;-76
2022/03/12 08:32:31;;;;;;;10.07;4.50;;;10.60;77.30;;;;;;4957843;28;20084;-77
2022/03/12 08:34:57;;;;;;;14.27;5.15;;;10.60;77.10;;;;;;4954145;28;20581;-75
2022/03/12 08:37:23;;;;;;;11.50;4.85;;;10.80;76.90;;;;;;4958870;28;20704;-76
2022/03/12 08:39:49;;;;;;;12.82;4.95;;;11.00;77.00;;;;;;4955064;28;20165;-75
2022/03/12 08:42:15;;;;;;;10.73;4.10;;;11.10;76.00;;;;;;4959620;28;20066;-76
2022/03/12 08:44:40;;;;;;;10.73;4.90;;;11.20;75.10;;;;;;4954044;28;20126;-75
2022/03/12 08:47:07;;;;;;;11.57;4.32;;;11.20;75.30;;;;;;4950979;28;20039;-76
2022/03/12 08:49:33;;;;;;;12.45;4.82;;;11.30;74.90;;;;;;4954656;28;20451;-77
2022/03/12 08:51:58;;;;;;;14.57;4.68;;;11.40;75.00;;;;;;4957037;28;20042;-76
2022/03/12 08:54:25;;;;;;;11.35;5.22;;;11.50;74.70;;;;;;4953063;28;20039;-76
2022/03/12 08:56:51;;;;;;;10.80;4.25;;;11.60;73.80;;;;;;4953942;28;20120;-75
2022/03/12 08:59:17;;;;;;;12.13;4.82;;;11.60;73.60;;;;;;4952839;28;20452;-75
2022/03/12 09:01:45;;;;;;;11.60;3.92;;;11.80;73.50;;;;;;4950141;28;20070;-74
2022/03/12 09:04:11;;;;;;;10.20;3.85;;;11.90;72.60;;;;;;4954623;28;20082;-74
2022/03/12 09:06:37;;;;;;;10.70;4.68;;;12.00;72.60;;;;;;4960694;28;20085;-74
2022/03/12 09:09:04;;;;;;;11.02;4.25;;;12.10;72.10;;;;;;4951839;28;20049;-74
2022/03/12 09:11:29;;;;;;;12.77;4.63;;;12.10;72.40;;;;;;4963308;28;20039;-74
2022/03/12 09:13:55;;;;;;;11.75;4.15;;;12.10;72.20;;;;;;4957939;28;20566;-75
2022/03/12 09:16:22;;;;;;;12.52;3.97;;;12.10;71.80;;;;;;4955589;28;20066;-74
2022/03/12 09:18:48;;;;;;;8.13;3.45;;;11.90;71.80;;;;;;4971081;28;20091;-74
2022/03/12 09:21:14;;;;;;;10.00;4.05;;;11.90;72.40;;;;;;4978736;28;20037;-75
2022/03/12 09:23:40;;;;;;;12.48;4.50;;;11.90;72.00;;;;;;4982910;28;20030;-75
2022/03/12 09:26:06;;;;;;;8.07;4.00;;;11.80;72.60;;;;;;4963737;28;20039;-75
2022/03/12 09:28:32;;;;;;;8.98;3.45;;;12.00;72.30;;;;;;4961826;28;20047;-74
2022/03/12 09:30:58;;;;;;;9.82;3.65;;;12.20;71.80;;;;;;4971811;28;20434;-74
2022/03/12 09:33:24;;;;;;;10.32;3.92;;;12.50;70.80;;;;;;4967136;28;20511;-73
2022/03/12 09:35:51;;;;;;;10.88;4.00;;;12.60;70.20;;;;;;4955661;28;20043;-74
2022/03/12 09:38:18;;;;;;;9.70;3.70;;;12.50;70.10;;;;;;4953055;28;20394;-73
2022/03/12 09:40:44;;;;;;;12.05;3.55;;;12.50;69.60;;;;;;4955960;28;20108;-73
2022/03/12 09:43:11;;;;;;;12.88;4.25;;;12.60;69.10;;;;;;4954419;28;20131;-73
2022/03/12 09:45:37;;;;;;;12.68;4.57;;;12.80;69.10;;;;;;4953919;28;20114;-73
2022/03/12 09:48:04;;;;;;;12.23;3.85;;;12.90;68.20;;;;;;4959353;28;20146;-74
2022/03/12 09:50:30;;;;;;;10.13;3.65;;;12.80;68.20;;;;;;4956459;28;20041;-75
2022/03/12 09:52:57;;;;;;;10.90;3.42;;;12.90;68.30;;;;;;4954195;28;20121;-75
2022/03/12 09:55:23;;;;;;;9.27;3.28;;;13.10;67.60;;;;;;4959491;28;20039;-76
2022/03/12 09:57:49;;;;;;;10.18;4.07;;;13.30;67.90;;;;;;4967770;28;20107;-74
2022/03/12 10:00:17;;;;;;;10.48;3.53;;;13.50;66.70;;;;;;4961564;28;20052;-76
2022/03/12 10:02:44;;;;;;;10.98;3.58;;;13.40;66.90;;;;;;4954788;28;20035;-77
2022/03/12 10:05:13;;;;;;;10.48;3.15;;;13.30;66.20;;;;;;4958170;28;20182;-75
2022/03/12 10:07:41;;;;;;;10.15;3.45;;;13.10;66.60;;;;;;4960280;28;20038;-76
2022/03/12 10:10:17;;;;;;;8.45;3.50;;;13.10;67.20;;;;;;4957256;28;20053;-76
2022/03/12 10:12:47;;;;;;;8.05;3.05;;;13.30;66.80;;;;;;4957262;28;20062;-76
2022/03/12 10:15:17;;;;;;;11.10;3.30;;;13.20;66.70;;;;;;4955607;28;20050;-76
2022/03/12 10:17:44;;;;;;;8.63;3.08;;;13.50;66.00;;;;;;4955490;28;20497;-76
2022/03/12 10:20:11;;;;;;;10.75;3.63;;;13.60;65.30;;;;;;4953447;28;20043;-75
2022/03/12 10:22:41;;;;;;;8.30;3.17;;;13.60;64.10;;;;;;4954256;28;20042;-76
2022/03/12 10:25:09;;;;;;;9.30;2.75;;;13.50;64.70;;;;;;4954437;28;20039;-75
2022/03/12 10:27:35;;;;;;;7.05;2.97;;;13.40;64.90;;;;;;4956782;28;20126;-77
2022/03/12 10:30:03;;;;;;;12.10;3.30;;;13.40;65.50;;;;;;4953947;28;20038;-77
2022/03/12 10:32:32;;;;;;;9.45;2.97;;;13.80;64.40;;;;;;4952184;28;20456;-77
2022/03/12 10:35:00;;;;;;;9.88;3.10;;;14.10;63.50;;;;;;4950893;28;20048;-77
2022/03/12 10:37:28;;;;;;;9.13;3.25;;;14.20;63.80;;;;;;4956154;28;20161;-77
2022/03/12 10:40:18;;;;;;;8.82;2.90;;;14.20;63.00;;;;;;4953463;28;20055;-77
2022/03/12 10:42:51;;;;;;;11.00;3.58;;;14.20;62.30;;;;;;4939530;28;20058;-78
2022/03/12 10:45:20;;;;;;;10.38;3.00;;;14.10;62.90;;;;;;4956583;28;20038;-77
2022/03/12 10:47:53;;;;;;;9.35;2.88;;;14.10;63.80;;;;;;4951602;28;20041;-77
2022/03/12 10:50:25;;;;;;;7.07;2.83;;;14.30;63.40;;;;;;4949500;28;20031;-76
2022/03/12 10:52:53;;;;;;;9.25;3.03;;;14.30;62.30;;;;;;4939821;28;20031;-78
2022/03/12 10:55:29;;;;;;;10.55;3.08;;;14.20;62.10;;;;;;4936472;28;20554;-78
2022/03/12 10:58:03;;;;;;;8.48;2.58;;;14.30;61.90;;;;;;4932335;28;20079;-77
2022/03/12 11:00:39;;;;;;;7.97;2.78;;;14.40;62.40;;;;;;4953165;28;20050;-77
2022/03/12 11:03:11;;;;;;;8.20;2.80;;;14.50;61.50;;;;;;4957206;28;20122;-77
2022/03/12 11:05:38;;;;;;;10.30;2.97;;;14.60;61.00;;;;;;4957203;28;20121;-76
2022/03/12 11:08:20;;;;;;;9.60;2.92;;;14.60;60.70;;;;;;4963571;28;20426;-77
2022/03/12 11:10:52;;;;;;;9.07;2.88;;;14.70;61.00;;;;;;4958140;28;20045;-77
2022/03/12 11:13:27;;;;;;;8.70;2.63;;;15.10;59.80;;;;;;4949136;28;20036;-76
2022/03/12 11:16:06;;;;;;;7.03;2.40;;;15.10;59.50;;;;;;4948721;28;20046;-76
2022/03/12 11:18:35;;;;;;;6.43;2.28;;;15.10;58.70;;;;;;4947120;28;20469;-79
2022/03/12 11:21:01;;;;;;;9.45;2.60;;;15.30;58.00;;;;;;4954857;28;20054;-77
2022/03/12 11:23:31;;;;;;;7.93;2.60;;;15.10;57.60;;;;;;4936564;28;20055;-77
2022/03/12 11:26:07;;;;;;;9.93;3.33;;;14.90;58.90;;;;;;4931985;28;20035;-76
2022/03/12 11:28:37;;;;;;;7.55;3.10;;;15.10;59.60;;;;;;4936939;28;20124;-74
2022/03/12 11:31:07;;;;;;;7.80;2.42;;;15.10;57.50;;;;;;4955765;28;20178;-75
2022/03/12 11:33:35;;;;;;;8.32;2.65;;;15.10;58.20;;;;;;4957747;28;20038;-76
2022/03/12 11:36:06;;;;;;;8.40;3.08;;;15.10;58.80;;;;;;4955693;28;20057;-75
2022/03/12 11:38:32;;;;;;;9.80;2.92;;;15.10;58.80;;;;;;4959400;28;20059;-74
2022/03/12 11:41:24;;;;;;;10.02;2.58;;;15.10;59.70;;;;;;4955183;28;20425;-75
2022/03/12 11:43:49;;;;;;;6.75;2.08;;;15.10;58.50;;;;;;4950949;28;20437;-74
2022/03/12 11:46:16;;;;;;;8.68;2.30;;;15.10;58.20;;;;;;4959707;28;20075;-74
2022/03/12 11:48:41;;;;;;;9.45;2.83;;;15.10;58.40;;;;;;4955014;28;20052;-75
2022/03/12 11:51:19;;;;;;;7.68;2.60;;;15.10;58.40;;;;;;4956544;28;20355;-74
2022/03/12 11:53:45;;;;;;;10.75;2.88;;;15.00;59.60;;;;;;4953241;28;20092;-74
2022/03/12 11:56:12;;;;;;;8.05;3.20;;;15.10;59.50;;;;;;4966950;28;20103;-76
2022/03/12 11:58:38;;;;;;;9.93;3.05;;;15.00;59.20;;;;;;4958649;28;20034;-75
2022/03/12 12:01:05;;;;;;;8.70;2.65;;;14.90;59.10;;;;;;4959252;28;20399;-76
2022/03/12 12:03:31;;;;;;;8.20;2.53;;;14.70;59.60;;;;;;4953053;28;20062;-74
2022/03/12 12:05:59;;;;;;;8.57;3.45;;;14.80;59.60;;;;;;4954323;28;20190;-78
2022/03/12 12:08:26;;;;;;;8.30;2.80;;;14.80;59.40;;;;;;4952128;28;20054;-75
2022/03/12 12:10:54;;;;;;;9.63;2.63;;;14.70;60.40;;;;;;4956507;28;20454;-73
2022/03/12 12:13:20;;;;;;;12.27;2.75;;;14.80;59.80;;;;;;4958234;28;20118;-75
2022/03/12 12:15:46;;;;;;;9.25;2.90;;;14.60;59.60;;;;;;4953269;28;20043;-75
2022/03/12 12:18:13;;;;;;;9.20;3.13;;;14.60;60.20;;;;;;4950582;28;20045;-75
2022/03/12 12:20:42;;;;;;;8.05;2.55;;;14.80;60.30;;;;;;4957603;28;20274;-76
2022/03/12 12:23:17;;;;;;;7.43;2.63;;;14.80;59.20;;;;;;4954816;28;20047;-77
2022/03/12 12:25:43;;;;;;;8.73;2.53;;;14.80;58.60;;;;;;4957045;28;20397;-75
2022/03/12 12:28:18;;;;;;;9.52;2.50;;;14.60;59.50;;;;;;4957359;28;20039;-75
2022/03/12 12:30:46;;;;;;;9.57;2.83;;;14.60;59.30;;;;;;4955198;28;20047;-76
2022/03/12 12:33:25;;;;;;;9.82;2.95;;;14.40;60.00;;;;;;4966972;28;20504;-75
2022/03/12 12:36:05;;;;;;;8.48;2.63;;;14.50;60.10;;;;;;4952018;28;20051;-75
2022/03/12 12:38:31;;;;;;;7.43;2.85;;;14.60;60.30;;;;;;4951442;28;20070;-73
2022/03/12 12:40:59;;;;;;;8.50;3.05;;;14.70;60.70;;;;;;4962177;28;20130;-75
2022/03/12 12:43:42;;;;;;;9.60;2.88;;;14.80;60.50;;;;;;4956766;28;20039;-76
2022/03/12 12:46:09;;;;;;;11.77;2.78;;;14.80;59.90;;;;;;4958496;28;20194;-74
2022/03/12 12:48:48;;;;;;;10.77;2.60;;;14.80;59.80;;;;;;4952221;28;20070;-73